Logo AVAMET
Benvolgut visitant, si us plau, ingressa Recuperar contrasenya
AVAMET paisatges

l′Alfàs del Pi l′Albir

Dades diàries. Acumulats / Últims 30 dies disponibles

Data Temperatura (°C) Humitat rel. (%) Pressió rel. (hPa) Vent (km/h) Precipitació
Mínima Mitjana Màxima Amplitud
tèrmica
Mínima Mitjana Màxima Mínima Mitjana Màxima Predom. Mitjana Ràfega
màxima
Total
(mm)
Índex-n
Mínima Mitjana Màxima Mínima Mitjana Màxima n
0 a 1
P0 max
mm 5'
Dades mensuals acumulades fins l'últim dia disponible
12/2020 8,4 10,4 12,8 13,7 15,2 16,3 18,7 10,3 40 59 88 987 1.002 1.015   5,8 48,3 0,0
Dades anuals acumulades fins l'últim dia disponible
2020 7,2 15,0 25,9 18,8 10,8 21,0 33,4 26,2 24 70 95 987 1.010 1.027   5,5 82,1 332,4
Últims 30 dies disponibles
04-12-2020 11,2     13,1     15,5 4,3 48 57 67 987 989 991 OSO 5,5 48,3 0,0
03-12-2020 8,4     12,0     15,2 6,8 45 51 57 998 1.003 1.009 SO 5,1 37,0 0,0
02-12-2020 9,3     14,5     15,6 6,3 40 49 55 1.004 1.005 1.008 ESE 10,0 38,6 0,0
01-12-2020 12,8     15,2     18,7 5,9 73 81 88 1.010 1.013 1.015 S 2,7 22,5 0,0
30-11-2020 12,3     13,6     17,4 5,1 84 85 86 1.015 1.015 1.016 ESE 0,2 17,7 0,0
29-11-2020 13,1     17,3     18,4 5,3 61 72 82 1.008 1.009 1.010 SSE 1,5 19,3 0,0
28-11-2020 11,9     13,4     15,7 3,8 73 83 91 995 997 998 ESE 2,8 27,4 0,2
27-11-2020 12,0     15,0     18,2 6,2 69 85 94 997 998 1.000 ESE 4,9 43,5 15,0 0,59 3,30
25-11-2020 11,2     15,2     18,0 6,8 66 77 88 1.007 1.009 1.011 SO 3,0 24,1 0,0
23-11-2020 10,4     14,6     17,7 7,3 61 71 81 1.019 1.021 1.021 S 0,6 14,5 0,0
17-11-2020 15,8     17,7     20,1 4,3 81 85 88 1.018 1.019 1.019 SSE 1,5 19,3 0,0
12-11-2020 13,3     17,7     18,8 5,5 68 78 84 1.013 1.015 1.016 ESE 4,7 20,9 0,0
11-11-2020 14,1     16,1     18,7 4,6 83 87 92 1.016 1.016 1.016 SSE 2,2 20,9 0,0
10-11-2020 14,4     18,4     20,2 5,8 66 78 87 1.017 1.017 1.018 SSO 3,2 20,9 0,0
09-11-2020 13,7     19,5     21,0 7,3 62 73 80 1.013 1.014 1.015 S 1,7 14,5 0,0
08-11-2020 14,5     18,9     20,8 6,3 52 71 90 1.014 1.015 1.016 SSE 2,5 20,9 0,2
07-11-2020 15,3     18,3     21,9 6,6 72 84 93 1.009 1.013 1.016 SO 5,4 29,0 8,4
06-11-2020 19,3     22,3     23,6 4,3 67 73 82 1.010 1.012 1.013 E 5,3 22,5 0,0
05-11-2020 16,5     19,4     19,8 3,3 89 90 91 1.012 1.013 1.014 ENE 15,7 40,2 0,0
04-11-2020 16,2     17,9     18,8 2,6 71 72 75 1.009 1.010 1.011 ENE 12,5 40,2 0,0
03-11-2020 14,5     19,8     21,7 7,2 74 81 94 1.015 1.016 1.016 ONO 1,5 17,7 0,2
01-11-2020 15,1     20,8     21,8 6,7 74 78 87 1.015 1.015 1.016 ONO 1,9 16,1 0,0
31-10-2020 15,3     21,4     22,8 7,5 55 61 72 1.015 1.017 1.018 OSO 2,7 17,7 0,0
30-10-2020 14,5     19,4     22,6 8,1 68 80 91 1.017 1.018 1.019 S 1,1 14,5 0,0
27-10-2020 12,7     18,4     20,9 8,2 39 55 76 1.009 1.010 1.012 SO 7,3 30,6 0,0
25-10-2020 15,7     21,0     22,3 6,6 49 58 70 1.006 1.009 1.011 OSO 7,7 35,4 0,0
23-10-2020 16,3     19,7     23,2 6,9 49 75 91 1.009 1.011 1.014 SO 4,2 29,0 0,2
22-10-2020 18,8     20,2     22,1 3,3 72 85 91 1.006 1.007 1.009 SE 1,6 17,7 0,4
21-10-2020 19,7     22,2     24,0 4,3 64 73 81 1.003 1.004 1.004 SO 4,3 27,4 0,0
20-10-2020 15,9     20,6     21,8 5,9 75 85 90 1.004 1.007 1.009 ESE 4,1 20,9 0,0
Últims 13 mesos disponibles
05/2020 13,7 17,6 20,8 22,1 19,1 24,5 29,7 16,0 43 62 79 997 1.009 1.019 E 6,0 40,2 21,2
04/2020 9,7 13,1 16,6 17,0 15,0 18,7 24,3 14,6 50 73 93 998 1.007 1.017 SSE 4,7 45,1 12,0
03/2020 8,1 12,1 17,4 15,3 10,8 17,3 23,5 15,4 43 70 89 999 1.007 1.015 OSO 8,1 56,3 79,8
02/2020 8,1 11,3 14,7 15,2 13,8 18,2 26,4 18,3 42 73 94 1.005 1.018 1.024 SE 3,1 33,8 2,4
01/2020 7,2 9,9 13,9 13,4 13,2 16,0 20,6 13,4 53 76 88 1.006 1.016 1.024 OSO 4,9 82,1 174,6
Tots els anys disponibles
Temperatura (°C)
Humitat relativa (%)
Velocitat del vent i ràfega màxima (km/h)
Direcció del vent (°)
Pressió (hPa)
Precipitació (mm)
Nota sobre les dades: s'avisa a l'usuari de la provisionalitat i no oficialitat d'aquestes dades
Logo AVAMET blanc
Web allotjada a Sollutia
Llicència de Creative CommonsLa web d'AVAMET i els seus continguts estan subjectes a una llicència de
Reconeixement - No Comercial - Compartir igual
Avís legal - Política de privacitat - Política de cookies
NOVES ESTACIONS: València - l'Olivereta (Soci), Xixona - Carrasqueta/Bugaia (Soci), l'Alcúdia de Crespins/Canals - la Muntanyeta (Soci), Utiel - est (Soci), Xàbia - Cansalades (Soci), Alginet (Soci), Quatretondeta (Ajuntament Soci) Enguera - Benali (Soci/ADENE), la Vall d'Alba - sud (Ajuntament Soci), El Fondó dels Frares (Estació pròpia d'AVAMET nº34) - - -